sensor_id;sensor_type;location;lat;lon;timestamp;pressure;altitude;pressure_sealevel;temperature;humidity
41467;BME280;27205;53.690;19.948;2023-03-23T00:05:03;99099.20;;;11.74;82.57
41467;BME280;27205;53.690;19.948;2023-03-23T00:10:05;99096.76;;;11.73;82.75
41467;BME280;27205;53.690;19.948;2023-03-23T00:15:09;99092.59;;;11.75;82.69
41467;BME280;27205;53.690;19.948;2023-03-23T00:20:14;99087.55;;;11.80;82.58
41467;BME280;27205;53.690;19.948;2023-03-23T00:25:17;99085.59;;;11.79;82.40
41467;BME280;27205;53.690;19.948;2023-03-23T00:30:19;99078.95;;;11.79;82.18
41467;BME280;27205;53.690;19.948;2023-03-23T00:35:21;99078.02;;;11.79;82.41
41467;BME280;27205;53.690;19.948;2023-03-23T00:40:24;99072.05;;;11.79;82.35
41467;BME280;27205;53.690;19.948;2023-03-23T00:45:28;99068.38;;;11.80;82.35
41467;BME280;27205;53.690;19.948;2023-03-23T00:50:31;99062.12;;;11.84;82.15
41467;BME280;27205;53.690;19.948;2023-03-23T00:55:33;99055.25;;;11.86;82.07
41467;BME280;27205;53.690;19.948;2023-03-23T01:00:35;99055.60;;;11.90;82.01
41467;BME280;27205;53.690;19.948;2023-03-23T01:05:39;99057.66;;;11.92;81.85
41467;BME280;27205;53.690;19.948;2023-03-23T01:10:41;99056.36;;;11.91;81.92
41467;BME280;27205;53.690;19.948;2023-03-23T01:15:45;99055.95;;;11.89;81.89
41467;BME280;27205;53.690;19.948;2023-03-23T01:20:48;99052.70;;;11.92;81.64
41467;BME280;27205;53.690;19.948;2023-03-23T01:25:50;99048.17;;;11.88;81.52
41467;BME280;27205;53.690;19.948;2023-03-23T01:31:05;99044.11;;;11.88;81.63
41467;BME280;27205;53.690;19.948;2023-03-23T01:36:13;99044.51;;;11.85;81.56
41467;BME280;27205;53.690;19.948;2023-03-23T01:41:17;99042.00;;;11.82;81.57
41467;BME280;27205;53.690;19.948;2023-03-23T01:46:19;99035.17;;;11.80;81.47
41467;BME280;27205;53.690;19.948;2023-03-23T01:51:25;99032.66;;;11.78;81.35
41467;BME280;27205;53.690;19.948;2023-03-23T01:56:34;99027.34;;;11.74;81.45
41467;BME280;27205;53.690;19.948;2023-03-23T02:01:39;99024.52;;;11.66;81.01
41467;BME280;27205;53.690;19.948;2023-03-23T02:06:47;99026.96;;;11.60;81.15
41467;BME280;27205;53.690;19.948;2023-03-23T02:11:49;99032.13;;;11.48;80.98
41467;BME280;27205;53.690;19.948;2023-03-23T02:16:55;99033.73;;;11.36;81.10
41467;BME280;27205;53.690;19.948;2023-03-23T02:27:47;99019.68;;;11.32;81.36
41467;BME280;27205;53.690;19.948;2023-03-23T02:43:21;99006.36;;;11.20;81.71
41467;BME280;27205;53.690;19.948;2023-03-23T02:48:28;98997.39;;;11.18;81.42
41467;BME280;27205;53.690;19.948;2023-03-23T02:53:34;98998.84;;;11.17;81.47
41467;BME280;27205;53.690;19.948;2023-03-23T02:58:39;99003.56;;;11.10;81.65
41467;BME280;27205;53.690;19.948;2023-03-23T03:03:41;98990.56;;;11.01;81.48
41467;BME280;27205;53.690;19.948;2023-03-23T03:08:52;98981.52;;;10.97;81.59
41467;BME280;27205;53.690;19.948;2023-03-23T03:14:10;98968.73;;;10.89;81.69
41467;BME280;27205;53.690;19.948;2023-03-23T03:19:20;98942.42;;;10.85;81.60
41467;BME280;27205;53.690;19.948;2023-03-23T03:24:28;98935.96;;;10.86;81.57
41467;BME280;27205;53.690;19.948;2023-03-23T03:29:37;98924.23;;;10.85;81.63
41467;BME280;27205;53.690;19.948;2023-03-23T03:34:43;98933.80;;;10.83;81.83
41467;BME280;27205;53.690;19.948;2023-03-23T03:39:45;98942.20;;;10.79;81.50
41467;BME280;27205;53.690;19.948;2023-03-23T03:44:47;98947.90;;;10.80;81.65
41467;BME280;27205;53.690;19.948;2023-03-23T03:49:49;98941.66;;;10.72;81.77
41467;BME280;27205;53.690;19.948;2023-03-23T03:54:51;98942.58;;;10.64;81.75
41467;BME280;27205;53.690;19.948;2023-03-23T03:59:54;98940.85;;;10.50;81.77
41467;BME280;27205;53.690;19.948;2023-03-23T04:04:56;98941.88;;;10.37;81.77
41467;BME280;27205;53.690;19.948;2023-03-23T04:09:58;98939.67;;;10.26;81.70
41467;BME280;27205;53.690;19.948;2023-03-23T04:15:01;98943.53;;;10.13;81.96
41467;BME280;27205;53.690;19.948;2023-03-23T04:20:04;98937.92;;;10.00;81.90
41467;BME280;27205;53.690;19.948;2023-03-23T04:25:18;98938.94;;;9.90;81.59
41467;BME280;27205;53.690;19.948;2023-03-23T04:30:24;98938.13;;;9.75;81.82
41467;BME280;27205;53.690;19.948;2023-03-23T04:35:27;98936.48;;;9.59;81.88
41467;BME280;27205;53.690;19.948;2023-03-23T04:40:31;98931.50;;;9.44;82.16
41467;BME280;27205;53.690;19.948;2023-03-23T04:45:34;98927.05;;;9.33;82.01
41467;BME280;27205;53.690;19.948;2023-03-23T04:50:39;98919.88;;;9.20;82.07
41467;BME280;27205;53.690;19.948;2023-03-23T04:55:41;98916.54;;;9.15;82.12
41467;BME280;27205;53.690;19.948;2023-03-23T05:00:44;98914.86;;;9.13;82.20
41467;BME280;27205;53.690;19.948;2023-03-23T05:05:51;98918.80;;;9.13;82.26
41467;BME280;27205;53.690;19.948;2023-03-23T05:10:59;98924.45;;;9.12;82.70
41467;BME280;27205;53.690;19.948;2023-03-23T05:16:05;98929.62;;;9.25;82.80
41467;BME280;27205;53.690;19.948;2023-03-23T05:21:08;98933.98;;;9.42;82.82
41467;BME280;27205;53.690;19.948;2023-03-23T05:26:10;98938.00;;;9.61;83.12
41467;BME280;27205;53.690;19.948;2023-03-23T05:31:12;98935.02;;;9.81;83.27
41467;BME280;27205;53.690;19.948;2023-03-23T05:36:15;98938.66;;;10.03;83.42
41467;BME280;27205;53.690;19.948;2023-03-23T05:41:17;98933.86;;;10.27;83.51
41467;BME280;27205;53.690;19.948;2023-03-23T05:46:20;98936.50;;;10.51;83.46
41467;BME280;27205;53.690;19.948;2023-03-23T05:51:22;98931.91;;;10.73;83.26
41467;BME280;27205;53.690;19.948;2023-03-23T05:56:24;98930.06;;;10.90;83.10
41467;BME280;27205;53.690;19.948;2023-03-23T06:01:27;98926.48;;;11.00;83.31
41467;BME280;27205;53.690;19.948;2023-03-23T06:06:30;98924.20;;;11.05;83.53
41467;BME280;27205;53.690;19.948;2023-03-23T06:11:33;98920.95;;;11.09;83.49
41467;BME280;27205;53.690;19.948;2023-03-23T06:16:36;98918.06;;;11.14;83.83
41467;BME280;27205;53.690;19.948;2023-03-23T06:21:38;98921.55;;;11.37;83.48
41467;BME280;27205;53.690;19.948;2023-03-23T06:26:40;98916.48;;;11.58;83.69
41467;BME280;27205;53.690;19.948;2023-03-23T06:31:46;98914.44;;;11.87;83.78
41467;BME280;27205;53.690;19.948;2023-03-23T06:36:50;98912.56;;;12.11;83.87
41467;BME280;27205;53.690;19.948;2023-03-23T06:41:52;98908.89;;;12.37;83.65
41467;BME280;27205;53.690;19.948;2023-03-23T06:46:55;98902.02;;;12.74;83.60
41467;BME280;27205;53.690;19.948;2023-03-23T06:51:57;98901.76;;;13.11;83.22
41467;BME280;27205;53.690;19.948;2023-03-23T06:57:02;98911.60;;;13.59;83.06
41467;BME280;27205;53.690;19.948;2023-03-23T07:02:04;98911.13;;;13.91;82.76
41467;BME280;27205;53.690;19.948;2023-03-23T07:07:10;98913.70;;;14.07;82.40
41467;BME280;27205;53.690;19.948;2023-03-23T07:12:16;98910.31;;;13.97;82.40
41467;BME280;27205;53.690;19.948;2023-03-23T07:17:18;98908.46;;;13.92;82.11
41467;BME280;27205;53.690;19.948;2023-03-23T07:22:20;98901.11;;;13.91;82.15
41467;BME280;27205;53.690;19.948;2023-03-23T07:27:23;98886.75;;;14.11;81.68
41467;BME280;27205;53.690;19.948;2023-03-23T07:32:26;98877.31;;;14.42;81.13
41467;BME280;27205;53.690;19.948;2023-03-23T07:37:28;98865.63;;;14.79;80.57
41467;BME280;27205;53.690;19.948;2023-03-23T07:42:30;98854.52;;;15.06;79.70
41467;BME280;27205;53.690;19.948;2023-03-23T07:47:32;98838.98;;;15.20;79.74
41467;BME280;27205;53.690;19.948;2023-03-23T07:52:36;98826.47;;;15.23;79.28
41467;BME280;27205;53.690;19.948;2023-03-23T07:57:38;98842.20;;;15.16;78.38
41467;BME280;27205;53.690;19.948;2023-03-23T08:02:41;98838.20;;;15.17;77.38
41467;BME280;27205;53.690;19.948;2023-03-23T08:07:44;98838.54;;;15.30;77.18
41467;BME280;27205;53.690;19.948;2023-03-23T08:12:46;98839.46;;;15.57;77.28
41467;BME280;27205;53.690;19.948;2023-03-23T08:17:52;98829.25;;;15.75;75.34
41467;BME280;27205;53.690;19.948;2023-03-23T08:22:56;98833.79;;;15.74;74.00
41467;BME280;27205;53.690;19.948;2023-03-23T08:27:59;98818.73;;;15.74;73.58
41467;BME280;27205;53.690;19.948;2023-03-23T08:33:03;98824.13;;;15.80;72.18
41467;BME280;27205;53.690;19.948;2023-03-23T08:38:06;98821.64;;;16.03;71.89
41467;BME280;27205;53.690;19.948;2023-03-23T08:43:08;98817.73;;;15.98;70.72
41467;BME280;27205;53.690;19.948;2023-03-23T08:48:11;98820.19;;;15.94;69.91
41467;BME280;27205;53.690;19.948;2023-03-23T08:53:13;98821.63;;;16.14;69.64
41467;BME280;27205;53.690;19.948;2023-03-23T08:58:15;98826.53;;;16.41;68.29
41467;BME280;27205;53.690;19.948;2023-03-23T09:03:18;98830.59;;;16.69;66.84
41467;BME280;27205;53.690;19.948;2023-03-23T09:08:20;98832.16;;;16.92;66.52
41467;BME280;27205;53.690;19.948;2023-03-23T09:13:23;98833.13;;;17.14;65.51
41467;BME280;27205;53.690;19.948;2023-03-23T09:18:25;98828.77;;;17.34;64.95
41467;BME280;27205;53.690;19.948;2023-03-23T09:23:27;98821.13;;;17.40;64.03
41467;BME280;27205;53.690;19.948;2023-03-23T09:28:30;98825.30;;;17.42;63.56
41467;BME280;27205;53.690;19.948;2023-03-23T09:33:33;98816.27;;;17.52;62.31
41467;BME280;27205;53.690;19.948;2023-03-23T09:38:35;98813.68;;;17.81;62.65
41467;BME280;27205;53.690;19.948;2023-03-23T09:49:03;98807.20;;;17.98;60.34
41467;BME280;27205;53.690;19.948;2023-03-23T09:59:34;98806.59;;;18.17;58.48
41467;BME280;27205;53.690;19.948;2023-03-23T10:04:43;98812.77;;;18.25;57.84
41467;BME280;27205;53.690;19.948;2023-03-23T10:09:51;98815.81;;;18.15;55.74
41467;BME280;27205;53.690;19.948;2023-03-23T10:25:21;98818.08;;;18.04;54.77
41467;BME280;27205;53.690;19.948;2023-03-23T10:35:36;98811.43;;;17.98;54.35
41467;BME280;27205;53.690;19.948;2023-03-23T10:40:50;98811.98;;;17.97;54.02
41467;BME280;27205;53.690;19.948;2023-03-23T10:46:00;98813.13;;;17.96;53.67
41467;BME280;27205;53.690;19.948;2023-03-23T10:51:06;98823.06;;;17.75;52.94
41467;BME280;27205;53.690;19.948;2023-03-23T10:56:26;98813.47;;;17.52;53.59
41467;BME280;27205;53.690;19.948;2023-03-23T11:01:33;98825.14;;;17.45;54.05
41467;BME280;27205;53.690;19.948;2023-03-23T11:06:36;98833.67;;;17.37;53.74
41467;BME280;27205;53.690;19.948;2023-03-23T11:11:50;98844.02;;;17.35;53.86
41467;BME280;27205;53.690;19.948;2023-03-23T11:16:58;98852.34;;;17.08;53.99
41467;BME280;27205;53.690;19.948;2023-03-23T11:27:07;98866.41;;;16.58;54.62
41467;BME280;27205;53.690;19.948;2023-03-23T11:32:14;98868.06;;;16.47;55.44
41467;BME280;27205;53.690;19.948;2023-03-23T11:37:25;98874.70;;;16.32;55.80
41467;BME280;27205;53.690;19.948;2023-03-23T11:42:48;98877.80;;;16.08;56.37
41467;BME280;27205;53.690;19.948;2023-03-23T11:48:01;98889.14;;;15.83;57.09
41467;BME280;27205;53.690;19.948;2023-03-23T11:54:02;98890.73;;;15.45;58.56
41467;BME280;27205;53.690;19.948;2023-03-23T11:58:38;98881.76;;;15.19;59.52
41467;BME280;27205;53.690;19.948;2023-03-23T12:20:29;98899.23;;;14.16;64.19
41467;BME280;27205;53.690;19.948;2023-03-23T12:42:19;98884.15;;;13.64;67.53
41467;BME280;27205;53.690;19.948;2023-03-23T12:52:55;98884.52;;;13.67;68.42
41467;BME280;27205;53.690;19.948;2023-03-23T12:58:15;98884.58;;;13.72;69.02
41467;BME280;27205;53.690;19.948;2023-03-23T13:09:12;98890.94;;;13.92;69.50
41467;BME280;27205;53.690;19.948;2023-03-23T13:14:36;98885.05;;;14.09;69.67
41467;BME280;27205;53.690;19.948;2023-03-23T13:25:19;98888.31;;;14.22;70.18
41467;BME280;27205;53.690;19.948;2023-03-23T13:30:24;98888.61;;;14.22;70.51
41467;BME280;27205;53.690;19.948;2023-03-23T13:35:34;98883.02;;;14.24;70.63
41467;BME280;27205;53.690;19.948;2023-03-23T13:40:43;98888.39;;;14.42;70.69
41467;BME280;27205;53.690;19.948;2023-03-23T13:45:47;98893.80;;;14.54;70.66
41467;BME280;27205;53.690;19.948;2023-03-23T13:56:22;98897.70;;;14.34;70.98
41467;BME280;27205;53.690;19.948;2023-03-23T14:01:37;98898.33;;;14.21;71.15
41467;BME280;27205;53.690;19.948;2023-03-23T14:06:49;98896.29;;;14.14;71.04
41467;BME280;27205;53.690;19.948;2023-03-23T14:17:13;98872.94;;;14.05;71.68
41467;BME280;27205;53.690;19.948;2023-03-23T14:22:23;98863.52;;;14.03;71.78
41467;BME280;27205;53.690;19.948;2023-03-23T14:27:26;98870.48;;;14.00;71.90
41467;BME280;27205;53.690;19.948;2023-03-23T14:32:31;98885.25;;;14.09;72.04
41467;BME280;27205;53.690;19.948;2023-03-23T14:37:34;98887.73;;;14.24;72.05
41467;BME280;27205;53.690;19.948;2023-03-23T14:42:39;98885.13;;;14.46;72.05
41467;BME280;27205;53.690;19.948;2023-03-23T14:47:49;98877.40;;;14.68;72.17
41467;BME280;27205;53.690;19.948;2023-03-23T14:52:55;98883.04;;;14.67;72.23
41467;BME280;27205;53.690;19.948;2023-03-23T14:58:08;98881.45;;;14.70;72.37
41467;BME280;27205;53.690;19.948;2023-03-23T15:03:14;98879.10;;;14.80;72.19
41467;BME280;27205;53.690;19.948;2023-03-23T15:08:27;98875.44;;;14.83;72.32
41467;BME280;27205;53.690;19.948;2023-03-23T15:13:36;98871.95;;;14.81;72.44
41467;BME280;27205;53.690;19.948;2023-03-23T15:19:28;98869.91;;;14.79;72.24
41467;BME280;27205;53.690;19.948;2023-03-23T15:24:37;98870.52;;;14.63;72.42
41467;BME280;27205;53.690;19.948;2023-03-23T15:29:47;98868.92;;;14.53;72.41
41467;BME280;27205;53.690;19.948;2023-03-23T15:34:50;98871.95;;;14.43;72.39
41467;BME280;27205;53.690;19.948;2023-03-23T15:39:53;98868.13;;;14.29;72.24
41467;BME280;27205;53.690;19.948;2023-03-23T15:55:36;98867.41;;;13.90;72.45
41467;BME280;27205;53.690;19.948;2023-03-23T16:00:39;98874.68;;;13.82;72.58
41467;BME280;27205;53.690;19.948;2023-03-23T16:05:44;98869.19;;;13.77;72.57
41467;BME280;27205;53.690;19.948;2023-03-23T16:10:48;98869.73;;;13.72;72.72
41467;BME280;27205;53.690;19.948;2023-03-23T16:15:52;98876.30;;;13.68;72.73
41467;BME280;27205;53.690;19.948;2023-03-23T16:20:56;98879.65;;;13.66;72.65
41467;BME280;27205;53.690;19.948;2023-03-23T16:26:00;98879.70;;;13.71;72.49
41467;BME280;27205;53.690;19.948;2023-03-23T16:31:04;98880.44;;;13.73;72.88
41467;BME280;27205;53.690;19.948;2023-03-23T16:36:11;98879.91;;;13.76;72.99
41467;BME280;27205;53.690;19.948;2023-03-23T16:41:14;98887.02;;;13.68;72.68
41467;BME280;27205;53.690;19.948;2023-03-23T16:46:18;98910.89;;;13.60;72.80
41467;BME280;27205;53.690;19.948;2023-03-23T16:51:22;98908.92;;;13.53;72.84
41467;BME280;27205;53.690;19.948;2023-03-23T16:56:25;98913.43;;;13.43;72.95
41467;BME280;27205;53.690;19.948;2023-03-23T17:01:29;98911.78;;;13.34;72.97
41467;BME280;27205;53.690;19.948;2023-03-23T17:06:33;98898.95;;;13.27;73.13
41467;BME280;27205;53.690;19.948;2023-03-23T17:11:36;98890.63;;;13.22;73.38
41467;BME280;27205;53.690;19.948;2023-03-23T17:16:39;98897.19;;;13.19;73.13
41467;BME280;27205;53.690;19.948;2023-03-23T17:21:43;98903.24;;;13.14;73.35
41467;BME280;27205;53.690;19.948;2023-03-23T17:26:47;98912.58;;;13.10;73.45
41467;BME280;27205;53.690;19.948;2023-03-23T17:31:50;98914.40;;;13.06;73.58
41467;BME280;27205;53.690;19.948;2023-03-23T17:36:54;98912.50;;;13.04;73.54
41467;BME280;27205;53.690;19.948;2023-03-23T17:41:59;98912.27;;;13.03;73.71
41467;BME280;27205;53.690;19.948;2023-03-23T17:47:03;98919.96;;;12.99;73.79
41467;BME280;27205;53.690;19.948;2023-03-23T17:52:06;98911.42;;;12.98;73.90
41467;BME280;27205;53.690;19.948;2023-03-23T17:57:09;98903.61;;;12.94;73.95
41467;BME280;27205;53.690;19.948;2023-03-23T18:02:13;98913.27;;;12.90;74.20
41467;BME280;27205;53.690;19.948;2023-03-23T18:07:17;98911.11;;;12.86;74.40
41467;BME280;27205;53.690;19.948;2023-03-23T18:12:25;98916.45;;;12.84;74.43
41467;BME280;27205;53.690;19.948;2023-03-23T18:17:29;98915.23;;;12.81;74.69
41467;BME280;27205;53.690;19.948;2023-03-23T18:22:33;98920.63;;;12.79;74.70
41467;BME280;27205;53.690;19.948;2023-03-23T18:27:36;98923.08;;;12.73;74.72
41467;BME280;27205;53.690;19.948;2023-03-23T18:32:40;98929.42;;;12.66;75.02
41467;BME280;27205;53.690;19.948;2023-03-23T18:37:44;98926.78;;;12.64;74.96
41467;BME280;27205;53.690;19.948;2023-03-23T18:42:49;98922.61;;;12.61;75.47
41467;BME280;27205;53.690;19.948;2023-03-23T18:47:53;98920.36;;;12.61;75.52
41467;BME280;27205;53.690;19.948;2023-03-23T18:52:58;98912.77;;;12.60;75.47
41467;BME280;27205;53.690;19.948;2023-03-23T18:58:02;98921.66;;;12.60;75.62
41467;BME280;27205;53.690;19.948;2023-03-23T19:03:06;98932.61;;;12.60;75.76
41467;BME280;27205;53.690;19.948;2023-03-23T19:08:10;98935.17;;;12.59;75.85
41467;BME280;27205;53.690;19.948;2023-03-23T19:13:13;98931.50;;;12.61;75.81
41467;BME280;27205;53.690;19.948;2023-03-23T19:18:19;98933.42;;;12.57;75.93
41467;BME280;27205;53.690;19.948;2023-03-23T19:23:23;98941.36;;;12.56;76.23
41467;BME280;27205;53.690;19.948;2023-03-23T19:28:27;98931.22;;;12.56;76.30
41467;BME280;27205;53.690;19.948;2023-03-23T19:33:34;98936.23;;;12.59;76.13
41467;BME280;27205;53.690;19.948;2023-03-23T19:38:37;98953.70;;;12.65;76.45
41467;BME280;27205;53.690;19.948;2023-03-23T19:43:41;98969.89;;;12.73;76.55
41467;BME280;27205;53.690;19.948;2023-03-23T19:48:45;98974.64;;;12.79;76.58
41467;BME280;27205;53.690;19.948;2023-03-23T19:53:50;98988.18;;;12.88;76.52
41467;BME280;27205;53.690;19.948;2023-03-23T19:58:54;98984.92;;;12.90;76.45
41467;BME280;27205;53.690;19.948;2023-03-23T20:03:57;98984.38;;;12.88;76.48
41467;BME280;27205;53.690;19.948;2023-03-23T20:09:03;98988.04;;;12.84;76.40
41467;BME280;27205;53.690;19.948;2023-03-23T20:14:08;99015.08;;;12.83;76.30
41467;BME280;27205;53.690;19.948;2023-03-23T20:19:12;99024.88;;;12.81;76.25
41467;BME280;27205;53.690;19.948;2023-03-23T20:24:16;99028.04;;;12.82;76.32
41467;BME280;27205;53.690;19.948;2023-03-23T20:29:19;99033.34;;;12.69;76.58
41467;BME280;27205;53.690;19.948;2023-03-23T20:34:23;99043.02;;;12.45;77.00
41467;BME280;27205;53.690;19.948;2023-03-23T20:39:33;99057.29;;;12.22;77.74
41467;BME280;27205;53.690;19.948;2023-03-23T20:44:39;99059.86;;;11.82;79.53
41467;BME280;27205;53.690;19.948;2023-03-23T20:49:43;99055.08;;;11.48;79.94
41467;BME280;27205;53.690;19.948;2023-03-23T20:54:55;99058.15;;;11.26;80.42
41467;BME280;27205;53.690;19.948;2023-03-23T20:59:59;99068.26;;;11.11;81.03
41467;BME280;27205;53.690;19.948;2023-03-23T21:05:02;99069.25;;;10.99;81.70
41467;BME280;27205;53.690;19.948;2023-03-23T21:10:07;99060.05;;;10.92;82.37
41467;BME280;27205;53.690;19.948;2023-03-23T21:15:11;99057.18;;;10.89;82.24
41467;BME280;27205;53.690;19.948;2023-03-23T21:20:14;99049.50;;;10.87;82.37
41467;BME280;27205;53.690;19.948;2023-03-23T21:25:18;99045.75;;;10.86;82.74
41467;BME280;27205;53.690;19.948;2023-03-23T21:30:36;99056.17;;;10.86;82.84
41467;BME280;27205;53.690;19.948;2023-03-23T21:35:44;99073.55;;;10.86;82.67
41467;BME280;27205;53.690;19.948;2023-03-23T21:40:47;99077.77;;;10.83;83.08
41467;BME280;27205;53.690;19.948;2023-03-23T21:45:52;99071.59;;;10.79;83.33
41467;BME280;27205;53.690;19.948;2023-03-23T21:51:06;99069.35;;;10.74;83.49
41467;BME280;27205;53.690;19.948;2023-03-23T21:56:10;99074.82;;;10.68;83.65
41467;BME280;27205;53.690;19.948;2023-03-23T22:01:13;99077.61;;;10.64;84.06
41467;BME280;27205;53.690;19.948;2023-03-23T22:06:21;99058.82;;;10.63;83.98
41467;BME280;27205;53.690;19.948;2023-03-23T22:11:33;99040.30;;;10.63;83.95
41467;BME280;27205;53.690;19.948;2023-03-23T22:16:36;99036.86;;;10.59;84.37
41467;BME280;27205;53.690;19.948;2023-03-23T22:21:40;99026.83;;;10.56;84.53
41467;BME280;27205;53.690;19.948;2023-03-23T22:26:44;99018.66;;;10.54;84.36
41467;BME280;27205;53.690;19.948;2023-03-23T22:31:48;99036.21;;;10.51;84.48
41467;BME280;27205;53.690;19.948;2023-03-23T22:36:51;99049.13;;;10.52;84.67
41467;BME280;27205;53.690;19.948;2023-03-23T22:41:54;99048.79;;;10.52;84.40
41467;BME280;27205;53.690;19.948;2023-03-23T22:46:58;99053.10;;;10.46;84.88
41467;BME280;27205;53.690;19.948;2023-03-23T22:52:02;99059.06;;;10.42;85.64
41467;BME280;27205;53.690;19.948;2023-03-23T22:57:05;99058.19;;;10.38;85.53
41467;BME280;27205;53.690;19.948;2023-03-23T23:02:09;99054.21;;;10.36;86.05
41467;BME280;27205;53.690;19.948;2023-03-23T23:07:12;99042.02;;;10.31;86.18
41467;BME280;27205;53.690;19.948;2023-03-23T23:12:16;99043.99;;;10.34;86.25
41467;BME280;27205;53.690;19.948;2023-03-23T23:17:20;99040.48;;;10.33;86.30
41467;BME280;27205;53.690;19.948;2023-03-23T23:22:24;99047.09;;;10.25;86.71
41467;BME280;27205;53.690;19.948;2023-03-23T23:27:28;99036.46;;;10.22;86.83
41467;BME280;27205;53.690;19.948;2023-03-23T23:32:32;99035.13;;;10.19;86.74
41467;BME280;27205;53.690;19.948;2023-03-23T23:37:35;99041.09;;;10.08;87.08
41467;BME280;27205;53.690;19.948;2023-03-23T23:42:40;99040.51;;;10.04;87.52
41467;BME280;27205;53.690;19.948;2023-03-23T23:47:43;99035.84;;;10.07;87.42
41467;BME280;27205;53.690;19.948;2023-03-23T23:52:48;99034.11;;;10.00;86.95
41467;BME280;27205;53.690;19.948;2023-03-23T23:57:52;99039.59;;;9.90;87.17
